sensor_id;sensor_type;location;lat;lon;timestamp;P1;durP1;ratioP1;P2;durP2;ratioP2
20988;SDS011;10653;47.052;15.410;2023-06-04T00:02:24;6.97;;;6.33;;
20988;SDS011;10653;47.052;15.410;2023-06-04T00:04:50;8.00;;;7.20;;
20988;SDS011;10653;47.052;15.410;2023-06-04T00:07:16;7.47;;;6.77;;
20988;SDS011;10653;47.052;15.410;2023-06-04T00:09:42;6.87;;;6.27;;
20988;SDS011;10653;47.052;15.410;2023-06-04T00:12:10;9.50;;;6.93;;
20988;SDS011;10653;47.052;15.410;2023-06-04T00:14:36;7.50;;;6.80;;
20988;SDS011;10653;47.052;15.410;2023-06-04T00:17:02;7.33;;;6.63;;
20988;SDS011;10653;47.052;15.410;2023-06-04T00:19:28;8.30;;;7.50;;
20988;SDS011;10653;47.052;15.410;2023-06-04T00:21:54;8.20;;;7.23;;
20988;SDS011;10653;47.052;15.410;2023-06-04T00:24:20;7.40;;;6.70;;
20988;SDS011;10653;47.052;15.410;2023-06-04T00:26:46;7.90;;;7.20;;
20988;SDS011;10653;47.052;15.410;2023-06-04T00:29:12;6.77;;;5.87;;
20988;SDS011;10653;47.052;15.410;2023-06-04T00:31:38;8.30;;;7.50;;
20988;SDS011;10653;47.052;15.410;2023-06-04T00:34:04;8.43;;;7.63;;
20988;SDS011;10653;47.052;15.410;2023-06-04T00:36:30;8.50;;;7.70;;
20988;SDS011;10653;47.052;15.410;2023-06-04T00:38:56;11.40;;;8.10;;
20988;SDS011;10653;47.052;15.410;2023-06-04T00:41:22;7.90;;;7.10;;
20988;SDS011;10653;47.052;15.410;2023-06-04T00:43:48;7.87;;;7.17;;
20988;SDS011;10653;47.052;15.410;2023-06-04T00:46:21;8.70;;;7.80;;
20988;SDS011;10653;47.052;15.410;2023-06-04T00:48:47;9.60;;;8.17;;
20988;SDS011;10653;47.052;15.410;2023-06-04T00:51:13;7.57;;;6.73;;
20988;SDS011;10653;47.052;15.410;2023-06-04T00:53:39;9.40;;;7.73;;
20988;SDS011;10653;47.052;15.410;2023-06-04T00:56:05;9.27;;;8.37;;
20988;SDS011;10653;47.052;15.410;2023-06-04T00:58:33;8.80;;;7.40;;
20988;SDS011;10653;47.052;15.410;2023-06-04T01:01:00;8.70;;;7.17;;
20988;SDS011;10653;47.052;15.410;2023-06-04T01:03:29;8.00;;;7.20;;
20988;SDS011;10653;47.052;15.410;2023-06-04T01:06:06;8.97;;;7.83;;
20988;SDS011;10653;47.052;15.410;2023-06-04T01:08:34;8.13;;;7.43;;
20988;SDS011;10653;47.052;15.410;2023-06-04T01:11:00;9.00;;;7.33;;
20988;SDS011;10653;47.052;15.410;2023-06-04T01:13:26;8.13;;;7.10;;
20988;SDS011;10653;47.052;15.410;2023-06-04T01:15:52;7.23;;;6.53;;
20988;SDS011;10653;47.052;15.410;2023-06-04T01:18:19;9.37;;;7.67;;
20988;SDS011;10653;47.052;15.410;2023-06-04T01:20:53;8.50;;;7.57;;
20988;SDS011;10653;47.052;15.410;2023-06-04T01:25:58;7.90;;;6.77;;
20988;SDS011;10653;47.052;15.410;2023-06-04T01:28:27;8.43;;;7.37;;
20988;SDS011;10653;47.052;15.410;2023-06-04T01:30:54;8.23;;;7.20;;
20988;SDS011;10653;47.052;15.410;2023-06-04T01:33:21;8.40;;;7.60;;
20988;SDS011;10653;47.052;15.410;2023-06-04T01:35:47;8.07;;;7.27;;
20988;SDS011;10653;47.052;15.410;2023-06-04T01:38:13;10.40;;;7.83;;
20988;SDS011;10653;47.052;15.410;2023-06-04T01:40:39;7.97;;;7.17;;
20988;SDS011;10653;47.052;15.410;2023-06-04T01:43:06;7.33;;;6.73;;
20988;SDS011;10653;47.052;15.410;2023-06-04T01:45:32;7.90;;;7.10;;
20988;SDS011;10653;47.052;15.410;2023-06-04T01:48:00;8.57;;;7.77;;
20988;SDS011;10653;47.052;15.410;2023-06-04T01:50:26;8.10;;;7.30;;
20988;SDS011;10653;47.052;15.410;2023-06-04T01:52:52;7.00;;;6.23;;
20988;SDS011;10653;47.052;15.410;2023-06-04T01:55:18;8.40;;;6.53;;
20988;SDS011;10653;47.052;15.410;2023-06-04T01:57:45;7.33;;;6.63;;
20988;SDS011;10653;47.052;15.410;2023-06-04T02:00:12;7.53;;;6.87;;
20988;SDS011;10653;47.052;15.410;2023-06-04T02:02:39;7.60;;;6.77;;
20988;SDS011;10653;47.052;15.410;2023-06-04T02:05:06;7.43;;;6.80;;
20988;SDS011;10653;47.052;15.410;2023-06-04T02:07:42;9.63;;;7.83;;
20988;SDS011;10653;47.052;15.410;2023-06-04T02:10:13;7.80;;;7.07;;
20988;SDS011;10653;47.052;15.410;2023-06-04T02:12:40;8.20;;;7.40;;
20988;SDS011;10653;47.052;15.410;2023-06-04T02:15:09;10.43;;;7.67;;
20988;SDS011;10653;47.052;15.410;2023-06-04T02:17:35;9.97;;;8.27;;
20988;SDS011;10653;47.052;15.410;2023-06-04T02:20:05;8.33;;;7.53;;
20988;SDS011;10653;47.052;15.410;2023-06-04T02:22:31;8.50;;;7.70;;
20988;SDS011;10653;47.052;15.410;2023-06-04T02:24:57;7.47;;;6.67;;
20988;SDS011;10653;47.052;15.410;2023-06-04T02:27:23;10.30;;;7.60;;
20988;SDS011;10653;47.052;15.410;2023-06-04T02:29:49;8.00;;;7.20;;
20988;SDS011;10653;47.052;15.410;2023-06-04T02:32:15;8.47;;;7.17;;
20988;SDS011;10653;47.052;15.410;2023-06-04T02:34:41;8.87;;;7.07;;
20988;SDS011;10653;47.052;15.410;2023-06-04T02:37:07;7.63;;;6.90;;
20988;SDS011;10653;47.052;15.410;2023-06-04T02:39:33;8.73;;;7.93;;
20988;SDS011;10653;47.052;15.410;2023-06-04T02:41:59;9.60;;;7.43;;
20988;SDS011;10653;47.052;15.410;2023-06-04T02:44:25;9.93;;;8.53;;
20988;SDS011;10653;47.052;15.410;2023-06-04T02:46:51;9.93;;;7.60;;
20988;SDS011;10653;47.052;15.410;2023-06-04T02:49:18;9.30;;;7.10;;
20988;SDS011;10653;47.052;15.410;2023-06-04T02:51:44;8.67;;;7.77;;
20988;SDS011;10653;47.052;15.410;2023-06-04T02:54:10;7.17;;;6.47;;
20988;SDS011;10653;47.052;15.410;2023-06-04T02:56:36;6.90;;;6.20;;
20988;SDS011;10653;47.052;15.410;2023-06-04T02:59:03;7.57;;;6.87;;
20988;SDS011;10653;47.052;15.410;2023-06-04T03:01:29;7.33;;;6.63;;
20988;SDS011;10653;47.052;15.410;2023-06-04T03:03:55;7.90;;;6.83;;
20988;SDS011;10653;47.052;15.410;2023-06-04T03:06:28;8.07;;;7.27;;
20988;SDS011;10653;47.052;15.410;2023-06-04T03:08:55;7.63;;;6.87;;
20988;SDS011;10653;47.052;15.410;2023-06-04T03:11:21;7.97;;;7.17;;
20988;SDS011;10653;47.052;15.410;2023-06-04T03:13:48;8.50;;;7.70;;
20988;SDS011;10653;47.052;15.410;2023-06-04T03:16:14;8.37;;;7.57;;
20988;SDS011;10653;47.052;15.410;2023-06-04T03:18:40;9.80;;;7.13;;
20988;SDS011;10653;47.052;15.410;2023-06-04T03:21:07;7.47;;;6.77;;
20988;SDS011;10653;47.052;15.410;2023-06-04T03:23:34;11.27;;;7.63;;
20988;SDS011;10653;47.052;15.410;2023-06-04T03:26:01;8.40;;;7.47;;
20988;SDS011;10653;47.052;15.410;2023-06-04T03:28:27;10.27;;;7.70;;
20988;SDS011;10653;47.052;15.410;2023-06-04T03:30:53;8.43;;;7.73;;
20988;SDS011;10653;47.052;15.410;2023-06-04T03:33:19;9.63;;;7.80;;
20988;SDS011;10653;47.052;15.410;2023-06-04T03:35:45;8.53;;;7.43;;
20988;SDS011;10653;47.052;15.410;2023-06-04T03:38:13;8.53;;;7.73;;
20988;SDS011;10653;47.052;15.410;2023-06-04T03:40:39;11.70;;;9.70;;
20988;SDS011;10653;47.052;15.410;2023-06-04T03:43:05;8.90;;;8.00;;
20988;SDS011;10653;47.052;15.410;2023-06-04T03:45:31;9.87;;;7.97;;
20988;SDS011;10653;47.052;15.410;2023-06-04T03:47:57;8.03;;;7.40;;
20988;SDS011;10653;47.052;15.410;2023-06-04T03:50:23;8.83;;;7.17;;
20988;SDS011;10653;47.052;15.410;2023-06-04T03:52:50;7.97;;;7.20;;
20988;SDS011;10653;47.052;15.410;2023-06-04T03:55:16;11.00;;;8.07;;
20988;SDS011;10653;47.052;15.410;2023-06-04T03:57:42;9.57;;;8.57;;
20988;SDS011;10653;47.052;15.410;2023-06-04T04:00:08;13.70;;;8.90;;
20988;SDS011;10653;47.052;15.410;2023-06-04T04:02:41;12.87;;;7.70;;
20988;SDS011;10653;47.052;15.410;2023-06-04T04:05:08;8.57;;;7.67;;
20988;SDS011;10653;47.052;15.410;2023-06-04T04:07:36;7.87;;;7.17;;
20988;SDS011;10653;47.052;15.410;2023-06-04T04:10:02;8.13;;;7.13;;
20988;SDS011;10653;47.052;15.410;2023-06-04T04:12:29;10.17;;;7.37;;
20988;SDS011;10653;47.052;15.410;2023-06-04T04:14:56;8.70;;;7.20;;
20988;SDS011;10653;47.052;15.410;2023-06-04T04:17:22;7.50;;;6.80;;
20988;SDS011;10653;47.052;15.410;2023-06-04T04:19:48;8.60;;;7.70;;
20988;SDS011;10653;47.052;15.410;2023-06-04T04:22:13;7.90;;;7.20;;
20988;SDS011;10653;47.052;15.410;2023-06-04T04:24:42;7.83;;;7.03;;
20988;SDS011;10653;47.052;15.410;2023-06-04T04:27:08;8.30;;;7.50;;
20988;SDS011;10653;47.052;15.410;2023-06-04T04:29:40;10.17;;;7.53;;
20988;SDS011;10653;47.052;15.410;2023-06-04T04:32:07;13.20;;;7.47;;
20988;SDS011;10653;47.052;15.410;2023-06-04T04:34:49;8.23;;;7.40;;
20988;SDS011;10653;47.052;15.410;2023-06-04T04:37:16;9.03;;;7.53;;
20988;SDS011;10653;47.052;15.410;2023-06-04T04:39:46;9.57;;;7.90;;
20988;SDS011;10653;47.052;15.410;2023-06-04T04:42:12;9.80;;;8.40;;
20988;SDS011;10653;47.052;15.410;2023-06-04T04:44:38;9.43;;;8.53;;
20988;SDS011;10653;47.052;15.410;2023-06-04T04:47:04;8.10;;;7.40;;
20988;SDS011;10653;47.052;15.410;2023-06-04T04:49:30;8.57;;;7.80;;
20988;SDS011;10653;47.052;15.410;2023-06-04T04:51:56;9.27;;;8.37;;
20988;SDS011;10653;47.052;15.410;2023-06-04T04:54:22;8.70;;;7.90;;
20988;SDS011;10653;47.052;15.410;2023-06-04T04:56:48;8.33;;;7.53;;
20988;SDS011;10653;47.052;15.410;2023-06-04T04:59:14;10.23;;;8.03;;
20988;SDS011;10653;47.052;15.410;2023-06-04T05:01:40;10.47;;;7.30;;
20988;SDS011;10653;47.052;15.410;2023-06-04T05:04:06;9.03;;;8.13;;
20988;SDS011;10653;47.052;15.410;2023-06-04T05:06:32;8.50;;;7.70;;
20988;SDS011;10653;47.052;15.410;2023-06-04T05:08:58;8.97;;;7.90;;
20988;SDS011;10653;47.052;15.410;2023-06-04T05:11:24;10.37;;;8.03;;
20988;SDS011;10653;47.052;15.410;2023-06-04T05:13:50;10.00;;;7.80;;
20988;SDS011;10653;47.052;15.410;2023-06-04T05:16:16;7.80;;;7.00;;
20988;SDS011;10653;47.052;15.410;2023-06-04T05:18:45;9.33;;;7.83;;
20988;SDS011;10653;47.052;15.410;2023-06-04T05:21:11;10.07;;;7.70;;
20988;SDS011;10653;47.052;15.410;2023-06-04T05:23:38;10.63;;;8.23;;
20988;SDS011;10653;47.052;15.410;2023-06-04T05:26:04;9.27;;;8.20;;
20988;SDS011;10653;47.052;15.410;2023-06-04T05:28:31;10.53;;;9.63;;
20988;SDS011;10653;47.052;15.410;2023-06-04T05:31:00;9.37;;;8.47;;
20988;SDS011;10653;47.052;15.410;2023-06-04T05:33:26;9.20;;;8.13;;
20988;SDS011;10653;47.052;15.410;2023-06-04T05:35:52;10.17;;;7.70;;
20988;SDS011;10653;47.052;15.410;2023-06-04T05:38:25;9.50;;;7.67;;
20988;SDS011;10653;47.052;15.410;2023-06-04T05:40:53;10.90;;;9.10;;
20988;SDS011;10653;47.052;15.410;2023-06-04T05:43:20;10.63;;;8.60;;
20988;SDS011;10653;47.052;15.410;2023-06-04T05:45:46;9.30;;;8.10;;
20988;SDS011;10653;47.052;15.410;2023-06-04T05:48:12;8.50;;;7.80;;
20988;SDS011;10653;47.052;15.410;2023-06-04T05:50:38;8.83;;;7.93;;
20988;SDS011;10653;47.052;15.410;2023-06-04T05:53:05;9.40;;;8.40;;
20988;SDS011;10653;47.052;15.410;2023-06-04T05:55:31;9.20;;;7.30;;
20988;SDS011;10653;47.052;15.410;2023-06-04T05:57:57;8.70;;;7.80;;
20988;SDS011;10653;47.052;15.410;2023-06-04T06:00:23;7.63;;;6.73;;
20988;SDS011;10653;47.052;15.410;2023-06-04T06:02:49;8.60;;;7.73;;
20988;SDS011;10653;47.052;15.410;2023-06-04T06:05:17;9.33;;;8.43;;
20988;SDS011;10653;47.052;15.410;2023-06-04T06:07:43;9.00;;;8.03;;
20988;SDS011;10653;47.052;15.410;2023-06-04T06:10:09;7.40;;;6.80;;
20988;SDS011;10653;47.052;15.410;2023-06-04T06:12:36;7.67;;;6.97;;
20988;SDS011;10653;47.052;15.410;2023-06-04T06:15:02;8.77;;;7.80;;
20988;SDS011;10653;47.052;15.410;2023-06-04T06:17:28;8.97;;;7.90;;
20988;SDS011;10653;47.052;15.410;2023-06-04T06:19:54;8.30;;;7.50;;
20988;SDS011;10653;47.052;15.410;2023-06-04T06:22:21;11.23;;;7.20;;
20988;SDS011;10653;47.052;15.410;2023-06-04T06:24:47;8.93;;;7.47;;
20988;SDS011;10653;47.052;15.410;2023-06-04T06:27:16;11.33;;;7.70;;
20988;SDS011;10653;47.052;15.410;2023-06-04T06:29:42;9.63;;;7.37;;
20988;SDS011;10653;47.052;15.410;2023-06-04T06:32:09;11.60;;;8.67;;
20988;SDS011;10653;47.052;15.410;2023-06-04T06:34:35;13.40;;;8.50;;
20988;SDS011;10653;47.052;15.410;2023-06-04T06:37:03;9.77;;;7.60;;
20988;SDS011;10653;47.052;15.410;2023-06-04T06:39:29;8.07;;;7.20;;
20988;SDS011;10653;47.052;15.410;2023-06-04T06:41:55;9.70;;;6.37;;
20988;SDS011;10653;47.052;15.410;2023-06-04T06:44:21;8.23;;;7.43;;
20988;SDS011;10653;47.052;15.410;2023-06-04T06:46:47;12.10;;;8.03;;
20988;SDS011;10653;47.052;15.410;2023-06-04T06:49:13;7.60;;;6.90;;
20988;SDS011;10653;47.052;15.410;2023-06-04T06:51:40;7.70;;;7.00;;
20988;SDS011;10653;47.052;15.410;2023-06-04T06:54:08;8.00;;;6.77;;
20988;SDS011;10653;47.052;15.410;2023-06-04T06:56:35;11.63;;;7.10;;
20988;SDS011;10653;47.052;15.410;2023-06-04T06:59:01;7.87;;;6.30;;
20988;SDS011;10653;47.052;15.410;2023-06-04T07:01:27;7.13;;;6.53;;
20988;SDS011;10653;47.052;15.410;2023-06-04T07:03:53;8.73;;;7.10;;
20988;SDS011;10653;47.052;15.410;2023-06-04T07:06:19;7.70;;;6.90;;
20988;SDS011;10653;47.052;15.410;2023-06-04T07:08:45;8.87;;;7.57;;
20988;SDS011;10653;47.052;15.410;2023-06-04T07:11:13;7.47;;;6.30;;
20988;SDS011;10653;47.052;15.410;2023-06-04T07:13:39;7.33;;;6.63;;
20988;SDS011;10653;47.052;15.410;2023-06-04T07:16:05;7.87;;;6.90;;
20988;SDS011;10653;47.052;15.410;2023-06-04T07:18:31;8.50;;;6.40;;
20988;SDS011;10653;47.052;15.410;2023-06-04T07:20:58;7.50;;;6.70;;
20988;SDS011;10653;47.052;15.410;2023-06-04T07:23:24;8.60;;;6.40;;
20988;SDS011;10653;47.052;15.410;2023-06-04T07:25:50;9.03;;;6.50;;
20988;SDS011;10653;47.052;15.410;2023-06-04T07:28:16;8.03;;;6.73;;
20988;SDS011;10653;47.052;15.410;2023-06-04T07:30:44;7.97;;;7.00;;
20988;SDS011;10653;47.052;15.410;2023-06-04T07:33:10;7.60;;;6.53;;
20988;SDS011;10653;47.052;15.410;2023-06-04T07:35:36;7.57;;;6.73;;
20988;SDS011;10653;47.052;15.410;2023-06-04T07:38:02;7.63;;;6.70;;
20988;SDS011;10653;47.052;15.410;2023-06-04T07:40:28;10.00;;;6.60;;
20988;SDS011;10653;47.052;15.410;2023-06-04T07:42:54;7.90;;;6.10;;
20988;SDS011;10653;47.052;15.410;2023-06-04T07:45:20;7.83;;;6.30;;
20988;SDS011;10653;47.052;15.410;2023-06-04T07:47:46;8.00;;;6.83;;
20988;SDS011;10653;47.052;15.410;2023-06-04T07:50:12;6.50;;;5.90;;
20988;SDS011;10653;47.052;15.410;2023-06-04T07:52:38;7.80;;;6.50;;
20988;SDS011;10653;47.052;15.410;2023-06-04T07:55:05;7.23;;;6.53;;
20988;SDS011;10653;47.052;15.410;2023-06-04T07:57:31;7.50;;;6.77;;
20988;SDS011;10653;47.052;15.410;2023-06-04T07:59:57;6.70;;;6.03;;
20988;SDS011;10653;47.052;15.410;2023-06-04T08:02:24;6.63;;;5.93;;
20988;SDS011;10653;47.052;15.410;2023-06-04T08:04:50;7.83;;;6.80;;
20988;SDS011;10653;47.052;15.410;2023-06-04T08:07:16;8.17;;;7.30;;
20988;SDS011;10653;47.052;15.410;2023-06-04T08:09:42;8.20;;;7.40;;
20988;SDS011;10653;47.052;15.410;2023-06-04T08:12:10;8.37;;;6.90;;
20988;SDS011;10653;47.052;15.410;2023-06-04T08:14:36;7.10;;;6.40;;
20988;SDS011;10653;47.052;15.410;2023-06-04T08:17:02;7.13;;;6.30;;
20988;SDS011;10653;47.052;15.410;2023-06-04T08:19:28;8.83;;;7.93;;
20988;SDS011;10653;47.052;15.410;2023-06-04T08:21:54;7.63;;;6.93;;
20988;SDS011;10653;47.052;15.410;2023-06-04T08:24:20;7.83;;;7.03;;
20988;SDS011;10653;47.052;15.410;2023-06-04T08:26:47;9.20;;;6.80;;
20988;SDS011;10653;47.052;15.410;2023-06-04T08:29:13;7.60;;;6.70;;
20988;SDS011;10653;47.052;15.410;2023-06-04T08:31:39;6.00;;;5.27;;
20988;SDS011;10653;47.052;15.410;2023-06-04T08:34:05;6.27;;;5.77;;
20988;SDS011;10653;47.052;15.410;2023-06-04T08:36:31;5.93;;;5.33;;
20988;SDS011;10653;47.052;15.410;2023-06-04T08:38:58;6.93;;;6.13;;
20988;SDS011;10653;47.052;15.410;2023-06-04T08:43:55;7.50;;;6.73;;
20988;SDS011;10653;47.052;15.410;2023-06-04T08:46:21;7.67;;;6.20;;
20988;SDS011;10653;47.052;15.410;2023-06-04T08:48:49;6.97;;;6.40;;
20988;SDS011;10653;47.052;15.410;2023-06-04T08:51:15;9.73;;;6.40;;
20988;SDS011;10653;47.052;15.410;2023-06-04T08:53:42;8.97;;;6.53;;
20988;SDS011;10653;47.052;15.410;2023-06-04T08:56:08;9.20;;;6.53;;
20988;SDS011;10653;47.052;15.410;2023-06-04T08:58:36;6.93;;;6.20;;
20988;SDS011;10653;47.052;15.410;2023-06-04T09:01:02;8.43;;;7.40;;
20988;SDS011;10653;47.052;15.410;2023-06-04T09:03:28;8.87;;;6.57;;
20988;SDS011;10653;47.052;15.410;2023-06-04T09:05:58;6.37;;;5.83;;
20988;SDS011;10653;47.052;15.410;2023-06-04T09:08:24;7.97;;;6.73;;
20988;SDS011;10653;47.052;15.410;2023-06-04T09:10:51;10.13;;;7.00;;
20988;SDS011;10653;47.052;15.410;2023-06-04T09:13:18;7.23;;;6.43;;
20988;SDS011;10653;47.052;15.410;2023-06-04T09:15:46;7.90;;;7.10;;
20988;SDS011;10653;47.052;15.410;2023-06-04T09:18:12;7.40;;;6.70;;
20988;SDS011;10653;47.052;15.410;2023-06-04T09:20:38;7.60;;;6.90;;
20988;SDS011;10653;47.052;15.410;2023-06-04T09:23:13;9.57;;;6.80;;
20988;SDS011;10653;47.052;15.410;2023-06-04T09:25:42;7.03;;;6.33;;
20988;SDS011;10653;47.052;15.410;2023-06-04T09:28:11;9.20;;;7.00;;
20988;SDS011;10653;47.052;15.410;2023-06-04T09:30:37;8.83;;;7.50;;
20988;SDS011;10653;47.052;15.410;2023-06-04T09:33:06;8.37;;;7.57;;
20988;SDS011;10653;47.052;15.410;2023-06-04T09:35:32;9.37;;;6.80;;
20988;SDS011;10653;47.052;15.410;2023-06-04T09:37:58;7.93;;;7.13;;
20988;SDS011;10653;47.052;15.410;2023-06-04T09:40:24;8.77;;;7.97;;
20988;SDS011;10653;47.052;15.410;2023-06-04T09:42:51;7.90;;;7.10;;
20988;SDS011;10653;47.052;15.410;2023-06-04T09:45:53;8.10;;;7.40;;
20988;SDS011;10653;47.052;15.410;2023-06-04T09:48:18;11.83;;;7.17;;
20988;SDS011;10653;47.052;15.410;2023-06-04T09:50:46;7.93;;;7.13;;
20988;SDS011;10653;47.052;15.410;2023-06-04T09:53:15;8.47;;;7.57;;
20988;SDS011;10653;47.052;15.410;2023-06-04T09:55:42;8.40;;;7.60;;
20988;SDS011;10653;47.052;15.410;2023-06-04T09:58:08;6.80;;;6.20;;
20988;SDS011;10653;47.052;15.410;2023-06-04T10:00:36;8.73;;;7.90;;
20988;SDS011;10653;47.052;15.410;2023-06-04T10:03:03;7.60;;;6.90;;
20988;SDS011;10653;47.052;15.410;2023-06-04T10:05:31;9.90;;;7.60;;
20988;SDS011;10653;47.052;15.410;2023-06-04T10:07:59;8.00;;;7.27;;
20988;SDS011;10653;47.052;15.410;2023-06-04T10:10:27;8.57;;;7.00;;
20988;SDS011;10653;47.052;15.410;2023-06-04T10:12:54;9.17;;;8.20;;
20988;SDS011;10653;47.052;15.410;2023-06-04T10:15:22;7.43;;;6.73;;
20988;SDS011;10653;47.052;15.410;2023-06-04T10:17:48;8.07;;;7.27;;
20988;SDS011;10653;47.052;15.410;2023-06-04T10:20:15;9.10;;;7.30;;
20988;SDS011;10653;47.052;15.410;2023-06-04T10:22:43;10.20;;;7.40;;
20988;SDS011;10653;47.052;15.410;2023-06-04T10:25:10;13.53;;;8.10;;
20988;SDS011;10653;47.052;15.410;2023-06-04T10:27:36;8.57;;;7.30;;
20988;SDS011;10653;47.052;15.410;2023-06-04T10:30:02;8.30;;;7.67;;
20988;SDS011;10653;47.052;15.410;2023-06-04T10:32:29;8.33;;;7.53;;
20988;SDS011;10653;47.052;15.410;2023-06-04T10:34:55;9.13;;;8.33;;
20988;SDS011;10653;47.052;15.410;2023-06-04T10:37:25;15.00;;;13.80;;
20988;SDS011;10653;47.052;15.410;2023-06-04T10:39:52;8.47;;;7.57;;
20988;SDS011;10653;47.052;15.410;2023-06-04T10:42:19;9.03;;;8.23;;
20988;SDS011;10653;47.052;15.410;2023-06-04T10:44:47;8.37;;;7.57;;
20988;SDS011;10653;47.052;15.410;2023-06-04T10:47:25;9.47;;;8.33;;
20988;SDS011;10653;47.052;15.410;2023-06-04T10:49:52;9.20;;;8.30;;
20988;SDS011;10653;47.052;15.410;2023-06-04T10:52:19;8.90;;;7.73;;
20988;SDS011;10653;47.052;15.410;2023-06-04T10:54:45;8.57;;;7.70;;
20988;SDS011;10653;47.052;15.410;2023-06-04T10:57:17;8.73;;;7.77;;
20988;SDS011;10653;47.052;15.410;2023-06-04T10:59:55;11.33;;;7.50;;
20988;SDS011;10653;47.052;15.410;2023-06-04T11:02:22;9.10;;;8.20;;
20988;SDS011;10653;47.052;15.410;2023-06-04T11:04:58;10.83;;;8.97;;
20988;SDS011;10653;47.052;15.410;2023-06-04T11:07:26;10.20;;;9.20;;
20988;SDS011;10653;47.052;15.410;2023-06-04T11:09:53;9.03;;;8.23;;
20988;SDS011;10653;47.052;15.410;2023-06-04T11:12:19;8.20;;;7.40;;
20988;SDS011;10653;47.052;15.410;2023-06-04T11:14:57;9.90;;;8.53;;
20988;SDS011;10653;47.052;15.410;2023-06-04T11:17:24;9.00;;;7.60;;
20988;SDS011;10653;47.052;15.410;2023-06-04T11:19:50;7.77;;;7.07;;
20988;SDS011;10653;47.052;15.410;2023-06-04T11:22:20;11.10;;;7.70;;
20988;SDS011;10653;47.052;15.410;2023-06-04T11:24:46;8.60;;;7.83;;
20988;SDS011;10653;47.052;15.410;2023-06-04T11:27:13;8.50;;;7.60;;
20988;SDS011;10653;47.052;15.410;2023-06-04T11:29:39;8.70;;;7.90;;
20988;SDS011;10653;47.052;15.410;2023-06-04T11:32:05;11.70;;;10.60;;
20988;SDS011;10653;47.052;15.410;2023-06-04T11:34:31;9.07;;;8.17;;
20988;SDS011;10653;47.052;15.410;2023-06-04T11:37:07;12.70;;;8.23;;
20988;SDS011;10653;47.052;15.410;2023-06-04T11:39:36;8.20;;;7.50;;
20988;SDS011;10653;47.052;15.410;2023-06-04T11:42:05;10.67;;;8.50;;
20988;SDS011;10653;47.052;15.410;2023-06-04T11:44:32;8.40;;;7.60;;
20988;SDS011;10653;47.052;15.410;2023-06-04T11:46:58;11.73;;;10.63;;
20988;SDS011;10653;47.052;15.410;2023-06-04T11:49:24;8.53;;;7.73;;
20988;SDS011;10653;47.052;15.410;2023-06-04T11:51:53;8.83;;;8.00;;
20988;SDS011;10653;47.052;15.410;2023-06-04T11:54:20;8.43;;;7.63;;
20988;SDS011;10653;47.052;15.410;2023-06-04T11:56:48;9.17;;;8.27;;
20988;SDS011;10653;47.052;15.410;2023-06-04T11:59:15;10.00;;;8.97;;
20988;SDS011;10653;47.052;15.410;2023-06-04T12:01:44;10.30;;;8.37;;
20988;SDS011;10653;47.052;15.410;2023-06-04T12:04:17;8.93;;;8.00;;
20988;SDS011;10653;47.052;15.410;2023-06-04T12:06:53;9.30;;;8.33;;
20988;SDS011;10653;47.052;15.410;2023-06-04T12:09:22;9.50;;;8.43;;
20988;SDS011;10653;47.052;15.410;2023-06-04T12:11:48;11.70;;;7.33;;
20988;SDS011;10653;47.052;15.410;2023-06-04T12:14:17;9.17;;;8.37;;
20988;SDS011;10653;47.052;15.410;2023-06-04T12:16:54;8.97;;;8.07;;
20988;SDS011;10653;47.052;15.410;2023-06-04T12:19:20;8.97;;;7.90;;
20988;SDS011;10653;47.052;15.410;2023-06-04T12:21:46;11.03;;;8.47;;
20988;SDS011;10653;47.052;15.410;2023-06-04T12:24:13;10.37;;;9.30;;
20988;SDS011;10653;47.052;15.410;2023-06-04T12:26:40;10.23;;;9.23;;
20988;SDS011;10653;47.052;15.410;2023-06-04T12:29:12;10.20;;;9.20;;
20988;SDS011;10653;47.052;15.410;2023-06-04T12:31:39;9.70;;;8.60;;
20988;SDS011;10653;47.052;15.410;2023-06-04T12:34:05;8.50;;;7.80;;
20988;SDS011;10653;47.052;15.410;2023-06-04T12:36:32;9.83;;;8.90;;
20988;SDS011;10653;47.052;15.410;2023-06-04T12:39:02;9.00;;;8.10;;
20988;SDS011;10653;47.052;15.410;2023-06-04T12:41:29;9.07;;;8.33;;
20988;SDS011;10653;47.052;15.410;2023-06-04T12:43:55;9.80;;;9.00;;
20988;SDS011;10653;47.052;15.410;2023-06-04T12:46:21;11.30;;;9.23;;
20988;SDS011;10653;47.052;15.410;2023-06-04T12:48:48;10.10;;;9.10;;
20988;SDS011;10653;47.052;15.410;2023-06-04T12:51:14;9.73;;;8.83;;
20988;SDS011;10653;47.052;15.410;2023-06-04T12:53:41;10.97;;;8.87;;
20988;SDS011;10653;47.052;15.410;2023-06-04T12:56:07;9.23;;;8.30;;
20988;SDS011;10653;47.052;15.410;2023-06-04T12:58:33;9.73;;;8.30;;
20988;SDS011;10653;47.052;15.410;2023-06-04T13:00:59;9.30;;;8.40;;
20988;SDS011;10653;47.052;15.410;2023-06-04T13:03:26;9.67;;;8.63;;
20988;SDS011;10653;47.052;15.410;2023-06-04T13:05:52;10.17;;;9.27;;
20988;SDS011;10653;47.052;15.410;2023-06-04T13:08:21;10.00;;;8.70;;
20988;SDS011;10653;47.052;15.410;2023-06-04T13:10:47;9.50;;;8.60;;
20988;SDS011;10653;47.052;15.410;2023-06-04T13:13:14;9.03;;;8.17;;
20988;SDS011;10653;47.052;15.410;2023-06-04T13:15:43;9.33;;;7.80;;
20988;SDS011;10653;47.052;15.410;2023-06-04T13:18:09;10.40;;;9.30;;
20988;SDS011;10653;47.052;15.410;2023-06-04T13:20:36;10.50;;;9.43;;
20988;SDS011;10653;47.052;15.410;2023-06-04T13:23:02;11.03;;;8.20;;
20988;SDS011;10653;47.052;15.410;2023-06-04T13:25:28;9.77;;;8.87;;
20988;SDS011;10653;47.052;15.410;2023-06-04T13:27:55;10.80;;;9.80;;
20988;SDS011;10653;47.052;15.410;2023-06-04T13:30:21;9.70;;;8.80;;
20988;SDS011;10653;47.052;15.410;2023-06-04T13:32:48;11.67;;;10.50;;
20988;SDS011;10653;47.052;15.410;2023-06-04T13:35:14;16.10;;;10.90;;
20988;SDS011;10653;47.052;15.410;2023-06-04T13:37:40;11.40;;;10.30;;
20988;SDS011;10653;47.052;15.410;2023-06-04T13:40:06;14.37;;;10.03;;
20988;SDS011;10653;47.052;15.410;2023-06-04T13:42:33;12.53;;;10.13;;
20988;SDS011;10653;47.052;15.410;2023-06-04T13:44:59;11.97;;;10.53;;
20988;SDS011;10653;47.052;15.410;2023-06-04T13:47:25;11.20;;;10.00;;
20988;SDS011;10653;47.052;15.410;2023-06-04T13:49:51;10.43;;;9.50;;
20988;SDS011;10653;47.052;15.410;2023-06-04T13:52:17;10.97;;;9.77;;
20988;SDS011;10653;47.052;15.410;2023-06-04T13:54:43;11.40;;;10.30;;
20988;SDS011;10653;47.052;15.410;2023-06-04T13:57:09;12.63;;;11.20;;
20988;SDS011;10653;47.052;15.410;2023-06-04T13:59:38;11.27;;;10.17;;
20988;SDS011;10653;47.052;15.410;2023-06-04T14:02:05;9.70;;;8.80;;
20988;SDS011;10653;47.052;15.410;2023-06-04T14:04:32;10.00;;;9.10;;
20988;SDS011;10653;47.052;15.410;2023-06-04T14:06:58;10.47;;;9.47;;
20988;SDS011;10653;47.052;15.410;2023-06-04T14:09:24;11.37;;;10.37;;
20988;SDS011;10653;47.052;15.410;2023-06-04T14:11:50;11.63;;;10.50;;
20988;SDS011;10653;47.052;15.410;2023-06-04T14:14:17;11.93;;;9.87;;
20988;SDS011;10653;47.052;15.410;2023-06-04T14:16:43;10.03;;;8.87;;
20988;SDS011;10653;47.052;15.410;2023-06-04T14:19:10;11.97;;;10.63;;
20988;SDS011;10653;47.052;15.410;2023-06-04T14:21:36;12.03;;;10.90;;
20988;SDS011;10653;47.052;15.410;2023-06-04T14:24:02;11.90;;;10.70;;
20988;SDS011;10653;47.052;15.410;2023-06-04T14:26:28;10.80;;;9.80;;
20988;SDS011;10653;47.052;15.410;2023-06-04T14:28:54;10.60;;;8.63;;
20988;SDS011;10653;47.052;15.410;2023-06-04T14:31:20;9.07;;;8.17;;
20988;SDS011;10653;47.052;15.410;2023-06-04T14:33:46;8.33;;;7.53;;
20988;SDS011;10653;47.052;15.410;2023-06-04T14:36:12;10.67;;;8.43;;